sensor_id;sensor_type;location;lat;lon;timestamp;temperature;humidity
26051;DHT22;13825;53.496;10.020;2022-12-18T00:01:25;-7.60;1.00
26051;DHT22;13825;53.496;10.020;2022-12-18T00:03:57;-7.50;1.00
26051;DHT22;13825;53.496;10.020;2022-12-18T00:06:26;-7.40;1.00
26051;DHT22;13825;53.496;10.020;2022-12-18T00:08:54;-7.40;1.00
26051;DHT22;13825;53.496;10.020;2022-12-18T00:11:23;-7.40;1.00
26051;DHT22;13825;53.496;10.020;2022-12-18T00:13:52;-7.40;1.00
26051;DHT22;13825;53.496;10.020;2022-12-18T00:16:21;-7.30;1.00
26051;DHT22;13825;53.496;10.020;2022-12-18T00:18:49;-7.30;1.00
26051;DHT22;13825;53.496;10.020;2022-12-18T00:21:18;-7.20;1.00
26051;DHT22;13825;53.496;10.020;2022-12-18T00:23:46;-7.20;1.00
26051;DHT22;13825;53.496;10.020;2022-12-18T00:26:15;-7.10;1.00
26051;DHT22;13825;53.496;10.020;2022-12-18T00:28:42;-7.20;1.00
26051;DHT22;13825;53.496;10.020;2022-12-18T00:31:11;-7.20;1.00
26051;DHT22;13825;53.496;10.020;2022-12-18T00:33:38;-7.10;1.00
26051;DHT22;13825;53.496;10.020;2022-12-18T00:36:07;-7.20;1.00
26051;DHT22;13825;53.496;10.020;2022-12-18T00:38:37;-7.20;1.00
26051;DHT22;13825;53.496;10.020;2022-12-18T00:41:05;-7.30;1.00
26051;DHT22;13825;53.496;10.020;2022-12-18T00:43:32;-7.30;1.00
26051;DHT22;13825;53.496;10.020;2022-12-18T00:45:58;-7.30;1.00
26051;DHT22;13825;53.496;10.020;2022-12-18T00:48:25;-7.30;1.00
26051;DHT22;13825;53.496;10.020;2022-12-18T00:50:52;-7.20;1.00
26051;DHT22;13825;53.496;10.020;2022-12-18T00:53:19;-7.20;1.00
26051;DHT22;13825;53.496;10.020;2022-12-18T00:55:48;-7.30;1.00
26051;DHT22;13825;53.496;10.020;2022-12-18T00:58:16;-7.20;1.00
26051;DHT22;13825;53.496;10.020;2022-12-18T01:00:43;-7.30;1.00
26051;DHT22;13825;53.496;10.020;2022-12-18T01:03:13;-7.40;1.00
26051;DHT22;13825;53.496;10.020;2022-12-18T01:05:40;-7.40;1.00
26051;DHT22;13825;53.496;10.020;2022-12-18T01:08:08;-7.40;1.00
26051;DHT22;13825;53.496;10.020;2022-12-18T01:10:35;-7.40;1.00
26051;DHT22;13825;53.496;10.020;2022-12-18T01:13:03;-7.40;1.00
26051;DHT22;13825;53.496;10.020;2022-12-18T01:15:30;-7.40;1.00
26051;DHT22;13825;53.496;10.020;2022-12-18T01:17:57;-7.40;1.00
26051;DHT22;13825;53.496;10.020;2022-12-18T01:20:24;-7.40;1.00
26051;DHT22;13825;53.496;10.020;2022-12-18T01:22:50;-7.50;1.00
26051;DHT22;13825;53.496;10.020;2022-12-18T01:25:17;-7.50;1.00
26051;DHT22;13825;53.496;10.020;2022-12-18T01:27:44;-7.60;1.00
26051;DHT22;13825;53.496;10.020;2022-12-18T01:30:13;-7.70;99.90
26051;DHT22;13825;53.496;10.020;2022-12-18T01:32:40;-7.70;99.90
26051;DHT22;13825;53.496;10.020;2022-12-18T01:35:07;-7.80;1.00
26051;DHT22;13825;53.496;10.020;2022-12-18T01:37:34;-7.80;1.00
26051;DHT22;13825;53.496;10.020;2022-12-18T01:40:02;-7.90;1.00
26051;DHT22;13825;53.496;10.020;2022-12-18T01:42:28;-7.90;1.00
26051;DHT22;13825;53.496;10.020;2022-12-18T01:45:05;-7.90;1.00
26051;DHT22;13825;53.496;10.020;2022-12-18T01:47:36;-8.00;1.00
26051;DHT22;13825;53.496;10.020;2022-12-18T01:50:08;-8.00;99.90
26051;DHT22;13825;53.496;10.020;2022-12-18T01:52:36;-8.10;99.90
26051;DHT22;13825;53.496;10.020;2022-12-18T01:55:05;-8.10;99.90
26051;DHT22;13825;53.496;10.020;2022-12-18T01:57:32;-8.00;99.90
26051;DHT22;13825;53.496;10.020;2022-12-18T02:00:03;-8.00;99.90
26051;DHT22;13825;53.496;10.020;2022-12-18T02:02:31;-7.90;99.90
26051;DHT22;13825;53.496;10.020;2022-12-18T02:04:59;-8.00;99.90
26051;DHT22;13825;53.496;10.020;2022-12-18T02:07:33;-8.10;99.90
26051;DHT22;13825;53.496;10.020;2022-12-18T02:10:07;-8.20;99.90
26051;DHT22;13825;53.496;10.020;2022-12-18T02:12:42;-8.20;99.90
26051;DHT22;13825;53.496;10.020;2022-12-18T02:15:16;-8.30;99.90
26051;DHT22;13825;53.496;10.020;2022-12-18T02:17:50;-8.30;99.90
26051;DHT22;13825;53.496;10.020;2022-12-18T02:20:23;-8.30;99.90
26051;DHT22;13825;53.496;10.020;2022-12-18T02:23:09;-8.30;99.90
26051;DHT22;13825;53.496;10.020;2022-12-18T02:25:57;-8.30;99.90
26051;DHT22;13825;53.496;10.020;2022-12-18T02:28:31;-8.30;99.90
26051;DHT22;13825;53.496;10.020;2022-12-18T02:31:03;-8.30;99.90
26051;DHT22;13825;53.496;10.020;2022-12-18T02:33:33;-8.10;1.00
26051;DHT22;13825;53.496;10.020;2022-12-18T02:36:03;-8.20;1.00
26051;DHT22;13825;53.496;10.020;2022-12-18T02:38:31;-8.10;1.00
26051;DHT22;13825;53.496;10.020;2022-12-18T02:41:02;-8.00;1.00
26051;DHT22;13825;53.496;10.020;2022-12-18T02:43:30;-8.00;99.90
26051;DHT22;13825;53.496;10.020;2022-12-18T02:45:58;-8.00;99.90
26051;DHT22;13825;53.496;10.020;2022-12-18T02:48:29;-8.00;99.90
26051;DHT22;13825;53.496;10.020;2022-12-18T02:51:00;-8.10;99.90
26051;DHT22;13825;53.496;10.020;2022-12-18T02:53:33;-8.20;99.90
26051;DHT22;13825;53.496;10.020;2022-12-18T02:56:07;-8.30;99.90
26051;DHT22;13825;53.496;10.020;2022-12-18T02:58:42;-8.40;99.90
26051;DHT22;13825;53.496;10.020;2022-12-18T03:01:16;-8.40;99.90
26051;DHT22;13825;53.496;10.020;2022-12-18T03:03:50;-8.40;99.90
26051;DHT22;13825;53.496;10.020;2022-12-18T03:06:22;-8.30;99.90
26051;DHT22;13825;53.496;10.020;2022-12-18T03:08:56;-8.30;99.90
26051;DHT22;13825;53.496;10.020;2022-12-18T03:11:26;-8.40;99.90
26051;DHT22;13825;53.496;10.020;2022-12-18T03:14:09;-8.40;99.90
26051;DHT22;13825;53.496;10.020;2022-12-18T03:16:37;-8.40;99.90
26051;DHT22;13825;53.496;10.020;2022-12-18T03:19:10;-8.40;99.90
26051;DHT22;13825;53.496;10.020;2022-12-18T03:21:43;-8.50;99.90
26051;DHT22;13825;53.496;10.020;2022-12-18T03:24:11;-8.40;99.90
26051;DHT22;13825;53.496;10.020;2022-12-18T03:26:42;-8.50;99.90
26051;DHT22;13825;53.496;10.020;2022-12-18T03:29:14;-8.50;99.90
26051;DHT22;13825;53.496;10.020;2022-12-18T03:31:48;-8.60;99.90
26051;DHT22;13825;53.496;10.020;2022-12-18T03:34:21;-8.60;99.90
26051;DHT22;13825;53.496;10.020;2022-12-18T03:36:49;-8.60;99.90
26051;DHT22;13825;53.496;10.020;2022-12-18T03:39:16;-8.70;99.90
26051;DHT22;13825;53.496;10.020;2022-12-18T03:41:50;-8.70;99.90
26051;DHT22;13825;53.496;10.020;2022-12-18T03:44:20;-8.70;99.90
26051;DHT22;13825;53.496;10.020;2022-12-18T03:46:54;-8.80;99.90
26051;DHT22;13825;53.496;10.020;2022-12-18T03:49:26;-8.70;99.90
26051;DHT22;13825;53.496;10.020;2022-12-18T03:52:01;-8.80;99.90
26051;DHT22;13825;53.496;10.020;2022-12-18T03:54:29;-8.80;99.90
26051;DHT22;13825;53.496;10.020;2022-12-18T03:57:03;-8.90;99.90
26051;DHT22;13825;53.496;10.020;2022-12-18T03:59:33;-8.90;99.90
26051;DHT22;13825;53.496;10.020;2022-12-18T04:02:01;-8.90;99.90
26051;DHT22;13825;53.496;10.020;2022-12-18T04:04:30;-9.00;99.90
26051;DHT22;13825;53.496;10.020;2022-12-18T04:06:58;-9.00;99.90
26051;DHT22;13825;53.496;10.020;2022-12-18T04:09:26;-9.00;99.90
26051;DHT22;13825;53.496;10.020;2022-12-18T04:11:55;-8.90;99.90
26051;DHT22;13825;53.496;10.020;2022-12-18T04:14:24;-8.90;99.90
26051;DHT22;13825;53.496;10.020;2022-12-18T04:16:50;-8.80;99.90
26051;DHT22;13825;53.496;10.020;2022-12-18T04:19:17;-8.80;99.90
26051;DHT22;13825;53.496;10.020;2022-12-18T04:21:44;-8.80;99.90
26051;DHT22;13825;53.496;10.020;2022-12-18T04:24:11;-8.80;99.90
26051;DHT22;13825;53.496;10.020;2022-12-18T04:26:38;-8.80;99.90
26051;DHT22;13825;53.496;10.020;2022-12-18T04:29:05;-8.90;99.90
26051;DHT22;13825;53.496;10.020;2022-12-18T04:31:33;-8.90;99.90
26051;DHT22;13825;53.496;10.020;2022-12-18T04:34:00;-9.00;99.90
26051;DHT22;13825;53.496;10.020;2022-12-18T04:36:27;-9.00;99.90
26051;DHT22;13825;53.496;10.020;2022-12-18T04:38:54;-9.00;99.90
26051;DHT22;13825;53.496;10.020;2022-12-18T04:41:23;-9.00;99.90
26051;DHT22;13825;53.496;10.020;2022-12-18T04:43:50;-8.90;99.90
26051;DHT22;13825;53.496;10.020;2022-12-18T04:46:17;-8.90;99.90
26051;DHT22;13825;53.496;10.020;2022-12-18T04:48:45;-8.90;99.90
26051;DHT22;13825;53.496;10.020;2022-12-18T04:51:13;-9.00;99.90
26051;DHT22;13825;53.496;10.020;2022-12-18T04:53:40;-9.00;99.90
26051;DHT22;13825;53.496;10.020;2022-12-18T04:56:08;-9.00;99.90
26051;DHT22;13825;53.496;10.020;2022-12-18T04:58:36;-9.00;99.90
26051;DHT22;13825;53.496;10.020;2022-12-18T05:01:03;-9.00;99.90
26051;DHT22;13825;53.496;10.020;2022-12-18T05:03:30;-9.00;99.90
26051;DHT22;13825;53.496;10.020;2022-12-18T05:05:58;-9.00;99.90
26051;DHT22;13825;53.496;10.020;2022-12-18T05:08:25;-9.10;99.90
26051;DHT22;13825;53.496;10.020;2022-12-18T05:10:58;-9.20;99.90
26051;DHT22;13825;53.496;10.020;2022-12-18T05:13:25;-9.10;99.90
26051;DHT22;13825;53.496;10.020;2022-12-18T05:15:53;-9.10;99.90
26051;DHT22;13825;53.496;10.020;2022-12-18T05:18:19;-9.20;99.90
26051;DHT22;13825;53.496;10.020;2022-12-18T05:20:46;-9.10;99.90
26051;DHT22;13825;53.496;10.020;2022-12-18T05:23:15;-9.10;99.90
26051;DHT22;13825;53.496;10.020;2022-12-18T05:25:41;-9.20;99.90
26051;DHT22;13825;53.496;10.020;2022-12-18T05:28:08;-9.20;99.90
26051;DHT22;13825;53.496;10.020;2022-12-18T05:30:35;-9.20;99.90
26051;DHT22;13825;53.496;10.020;2022-12-18T05:33:02;-9.30;99.90
26051;DHT22;13825;53.496;10.020;2022-12-18T05:35:29;-9.20;99.90
26051;DHT22;13825;53.496;10.020;2022-12-18T05:37:56;-9.30;91.50
26051;DHT22;13825;53.496;10.020;2022-12-18T05:40:24;-9.30;81.30
26051;DHT22;13825;53.496;10.020;2022-12-18T05:42:51;-9.30;58.80
26051;DHT22;13825;53.496;10.020;2022-12-18T05:45:18;-9.30;99.90
26051;DHT22;13825;53.496;10.020;2022-12-18T05:47:45;-9.30;99.90
26051;DHT22;13825;53.496;10.020;2022-12-18T05:50:12;-9.20;99.90
26051;DHT22;13825;53.496;10.020;2022-12-18T05:52:39;-9.10;99.90
26051;DHT22;13825;53.496;10.020;2022-12-18T05:55:07;-9.10;99.90
26051;DHT22;13825;53.496;10.020;2022-12-18T05:57:35;-9.10;99.90
26051;DHT22;13825;53.496;10.020;2022-12-18T06:00:02;-9.10;99.90
26051;DHT22;13825;53.496;10.020;2022-12-18T06:02:29;-9.10;99.90
26051;DHT22;13825;53.496;10.020;2022-12-18T06:04:56;-9.10;99.90
26051;DHT22;13825;53.496;10.020;2022-12-18T06:07:23;-9.10;99.90
26051;DHT22;13825;53.496;10.020;2022-12-18T06:09:50;-9.10;99.90
26051;DHT22;13825;53.496;10.020;2022-12-18T06:12:17;-9.20;99.90
26051;DHT22;13825;53.496;10.020;2022-12-18T06:14:45;-9.10;99.90
26051;DHT22;13825;53.496;10.020;2022-12-18T06:17:12;-9.10;99.90
26051;DHT22;13825;53.496;10.020;2022-12-18T06:19:39;-9.10;99.90
26051;DHT22;13825;53.496;10.020;2022-12-18T06:22:06;-9.10;99.90
26051;DHT22;13825;53.496;10.020;2022-12-18T06:24:33;-9.00;99.90
26051;DHT22;13825;53.496;10.020;2022-12-18T06:26:59;-9.10;99.90
26051;DHT22;13825;53.496;10.020;2022-12-18T06:29:26;-9.10;99.90
26051;DHT22;13825;53.496;10.020;2022-12-18T06:31:54;-9.20;99.90
26051;DHT22;13825;53.496;10.020;2022-12-18T06:34:21;-9.20;99.90
26051;DHT22;13825;53.496;10.020;2022-12-18T06:36:48;-9.20;99.90
26051;DHT22;13825;53.496;10.020;2022-12-18T06:39:15;-9.20;99.90
26051;DHT22;13825;53.496;10.020;2022-12-18T06:41:42;-9.20;99.90
26051;DHT22;13825;53.496;10.020;2022-12-18T06:44:09;-9.20;99.90
26051;DHT22;13825;53.496;10.020;2022-12-18T06:46:35;-9.30;99.90
26051;DHT22;13825;53.496;10.020;2022-12-18T06:49:04;-9.20;99.90
26051;DHT22;13825;53.496;10.020;2022-12-18T06:51:32;-9.30;99.90
26051;DHT22;13825;53.496;10.020;2022-12-18T06:53:58;-9.30;99.90
26051;DHT22;13825;53.496;10.020;2022-12-18T06:56:25;-9.30;99.90
26051;DHT22;13825;53.496;10.020;2022-12-18T06:58:53;-9.20;99.90
26051;DHT22;13825;53.496;10.020;2022-12-18T07:01:20;-9.30;99.90
26051;DHT22;13825;53.496;10.020;2022-12-18T07:03:51;-9.20;99.90
26051;DHT22;13825;53.496;10.020;2022-12-18T07:06:21;-9.30;99.90
26051;DHT22;13825;53.496;10.020;2022-12-18T07:08:50;-9.20;99.90
26051;DHT22;13825;53.496;10.020;2022-12-18T07:11:17;-9.20;99.90
26051;DHT22;13825;53.496;10.020;2022-12-18T07:13:45;-9.20;99.90
26051;DHT22;13825;53.496;10.020;2022-12-18T07:16:14;-9.20;99.90
26051;DHT22;13825;53.496;10.020;2022-12-18T07:18:41;-9.20;99.90
26051;DHT22;13825;53.496;10.020;2022-12-18T07:21:11;-9.20;99.90
26051;DHT22;13825;53.496;10.020;2022-12-18T07:23:39;-9.10;99.90
26051;DHT22;13825;53.496;10.020;2022-12-18T07:26:08;-9.10;99.90
26051;DHT22;13825;53.496;10.020;2022-12-18T07:28:36;-9.20;99.90
26051;DHT22;13825;53.496;10.020;2022-12-18T07:31:04;-9.10;99.90
26051;DHT22;13825;53.496;10.020;2022-12-18T07:33:32;-9.10;99.90
26051;DHT22;13825;53.496;10.020;2022-12-18T07:35:59;-9.00;99.90
26051;DHT22;13825;53.496;10.020;2022-12-18T07:38:26;-9.00;99.90
26051;DHT22;13825;53.496;10.020;2022-12-18T07:40:54;-8.90;99.90
26051;DHT22;13825;53.496;10.020;2022-12-18T07:43:21;-8.90;99.90
26051;DHT22;13825;53.496;10.020;2022-12-18T07:45:49;-8.90;99.90
26051;DHT22;13825;53.496;10.020;2022-12-18T07:48:16;-8.90;99.90
26051;DHT22;13825;53.496;10.020;2022-12-18T07:50:43;-8.80;99.90
26051;DHT22;13825;53.496;10.020;2022-12-18T07:53:09;-8.90;99.90
26051;DHT22;13825;53.496;10.020;2022-12-18T07:55:36;-8.90;99.90
26051;DHT22;13825;53.496;10.020;2022-12-18T07:58:06;-8.90;99.90
26051;DHT22;13825;53.496;10.020;2022-12-18T08:00:33;-8.90;99.90
26051;DHT22;13825;53.496;10.020;2022-12-18T08:03:00;-8.80;99.90
26051;DHT22;13825;53.496;10.020;2022-12-18T08:05:27;-8.80;99.90
26051;DHT22;13825;53.496;10.020;2022-12-18T08:07:54;-8.80;99.90
26051;DHT22;13825;53.496;10.020;2022-12-18T08:10:21;-8.70;99.90
26051;DHT22;13825;53.496;10.020;2022-12-18T08:12:49;-8.70;99.90
26051;DHT22;13825;53.496;10.020;2022-12-18T08:15:17;-8.70;99.90
26051;DHT22;13825;53.496;10.020;2022-12-18T08:17:44;-8.70;99.90
26051;DHT22;13825;53.496;10.020;2022-12-18T08:20:11;-8.50;99.90
26051;DHT22;13825;53.496;10.020;2022-12-18T08:22:39;-8.50;99.90
26051;DHT22;13825;53.496;10.020;2022-12-18T08:25:07;-8.50;99.90
26051;DHT22;13825;53.496;10.020;2022-12-18T08:27:34;-8.50;99.90
26051;DHT22;13825;53.496;10.020;2022-12-18T08:30:01;-8.40;99.90
26051;DHT22;13825;53.496;10.020;2022-12-18T08:32:30;-8.40;99.90
26051;DHT22;13825;53.496;10.020;2022-12-18T08:34:58;-8.40;99.90
26051;DHT22;13825;53.496;10.020;2022-12-18T08:37:25;-8.30;99.90
26051;DHT22;13825;53.496;10.020;2022-12-18T08:39:55;-8.30;99.90
26051;DHT22;13825;53.496;10.020;2022-12-18T08:42:22;-8.20;99.90
26051;DHT22;13825;53.496;10.020;2022-12-18T08:45:07;-8.20;99.90
26051;DHT22;13825;53.496;10.020;2022-12-18T08:47:36;-8.10;99.90
26051;DHT22;13825;53.496;10.020;2022-12-18T08:50:03;-8.00;99.90
26051;DHT22;13825;53.496;10.020;2022-12-18T08:52:31;-8.00;99.90
26051;DHT22;13825;53.496;10.020;2022-12-18T08:54:58;-8.00;99.90
26051;DHT22;13825;53.496;10.020;2022-12-18T08:57:25;-7.90;99.90
26051;DHT22;13825;53.496;10.020;2022-12-18T08:59:52;-7.80;99.90
26051;DHT22;13825;53.496;10.020;2022-12-18T09:02:19;-7.70;99.90
26051;DHT22;13825;53.496;10.020;2022-12-18T09:04:48;-7.50;99.90
26051;DHT22;13825;53.496;10.020;2022-12-18T09:07:14;-7.40;99.90
26051;DHT22;13825;53.496;10.020;2022-12-18T09:09:41;-7.40;99.90
26051;DHT22;13825;53.496;10.020;2022-12-18T09:12:08;-7.30;99.90
26051;DHT22;13825;53.496;10.020;2022-12-18T09:14:36;-7.20;99.90
26051;DHT22;13825;53.496;10.020;2022-12-18T09:17:03;-7.10;99.90
26051;DHT22;13825;53.496;10.020;2022-12-18T09:19:30;-7.00;99.90
26051;DHT22;13825;53.496;10.020;2022-12-18T09:21:58;-7.00;99.90
26051;DHT22;13825;53.496;10.020;2022-12-18T09:24:25;-6.90;99.90
26051;DHT22;13825;53.496;10.020;2022-12-18T09:26:53;-6.80;99.90
26051;DHT22;13825;53.496;10.020;2022-12-18T09:29:21;-6.80;99.90
26051;DHT22;13825;53.496;10.020;2022-12-18T09:31:48;-6.60;99.90
26051;DHT22;13825;53.496;10.020;2022-12-18T09:34:15;-6.60;99.90
26051;DHT22;13825;53.496;10.020;2022-12-18T09:36:42;-6.50;99.90
26051;DHT22;13825;53.496;10.020;2022-12-18T09:39:10;-6.40;99.90
26051;DHT22;13825;53.496;10.020;2022-12-18T09:41:45;-6.30;99.90
26051;DHT22;13825;53.496;10.020;2022-12-18T09:44:22;-6.20;99.90
26051;DHT22;13825;53.496;10.020;2022-12-18T09:46:55;-6.20;99.90
26051;DHT22;13825;53.496;10.020;2022-12-18T09:49:27;-6.10;99.90
26051;DHT22;13825;53.496;10.020;2022-12-18T09:51:59;-5.90;99.90
26051;DHT22;13825;53.496;10.020;2022-12-18T09:54:33;-5.80;99.90
26051;DHT22;13825;53.496;10.020;2022-12-18T09:57:01;-5.70;99.90
26051;DHT22;13825;53.496;10.020;2022-12-18T09:59:33;-5.70;99.80
26051;DHT22;13825;53.496;10.020;2022-12-18T10:02:13;-5.60;99.90
26051;DHT22;13825;53.496;10.020;2022-12-18T10:04:40;-5.50;99.90
26051;DHT22;13825;53.496;10.020;2022-12-18T10:07:12;-5.40;99.90
26051;DHT22;13825;53.496;10.020;2022-12-18T10:09:53;-5.30;99.90
26051;DHT22;13825;53.496;10.020;2022-12-18T10:12:27;-5.20;99.90
26051;DHT22;13825;53.496;10.020;2022-12-18T10:15:05;-5.10;99.90
26051;DHT22;13825;53.496;10.020;2022-12-18T10:17:40;-5.00;99.90
26051;DHT22;13825;53.496;10.020;2022-12-18T10:20:13;-4.90;99.90
26051;DHT22;13825;53.496;10.020;2022-12-18T10:22:53;-4.80;99.90
26051;DHT22;13825;53.496;10.020;2022-12-18T10:25:26;-4.80;99.90
26051;DHT22;13825;53.496;10.020;2022-12-18T10:27:57;-4.80;99.90
26051;DHT22;13825;53.496;10.020;2022-12-18T10:30:25;-4.60;99.90
26051;DHT22;13825;53.496;10.020;2022-12-18T10:32:52;-4.50;99.90
26051;DHT22;13825;53.496;10.020;2022-12-18T10:35:21;-4.40;99.90
26051;DHT22;13825;53.496;10.020;2022-12-18T10:38:04;-4.50;99.90
26051;DHT22;13825;53.496;10.020;2022-12-18T10:40:33;-4.50;99.90
26051;DHT22;13825;53.496;10.020;2022-12-18T10:43:15;-4.40;99.90
26051;DHT22;13825;53.496;10.020;2022-12-18T10:45:43;-4.40;99.90
26051;DHT22;13825;53.496;10.020;2022-12-18T10:48:24;-4.30;99.90
26051;DHT22;13825;53.496;10.020;2022-12-18T10:50:57;-4.30;99.90
26051;DHT22;13825;53.496;10.020;2022-12-18T10:53:26;-4.20;99.90
26051;DHT22;13825;53.496;10.020;2022-12-18T10:55:57;-4.10;99.90
26051;DHT22;13825;53.496;10.020;2022-12-18T10:58:27;-4.00;99.90
26051;DHT22;13825;53.496;10.020;2022-12-18T11:01:07;-4.00;99.90
26051;DHT22;13825;53.496;10.020;2022-12-18T11:03:43;-3.90;99.90
26051;DHT22;13825;53.496;10.020;2022-12-18T11:09:26;-3.70;99.90
26051;DHT22;13825;53.496;10.020;2022-12-18T11:12:17;-3.70;99.90
26051;DHT22;13825;53.496;10.020;2022-12-18T11:14:52;-3.80;99.90
26051;DHT22;13825;53.496;10.020;2022-12-18T11:17:31;-3.90;99.90
26051;DHT22;13825;53.496;10.020;2022-12-18T11:20:04;-3.80;99.90
26051;DHT22;13825;53.496;10.020;2022-12-18T11:22:36;-3.70;99.90
26051;DHT22;13825;53.496;10.020;2022-12-18T11:25:18;-3.50;99.90
26051;DHT22;13825;53.496;10.020;2022-12-18T11:27:53;-3.40;99.90
26051;DHT22;13825;53.496;10.020;2022-12-18T11:30:23;-3.40;99.90
26051;DHT22;13825;53.496;10.020;2022-12-18T11:33:00;-3.50;99.90
26051;DHT22;13825;53.496;10.020;2022-12-18T11:35:44;-3.40;99.90
26051;DHT22;13825;53.496;10.020;2022-12-18T11:38:21;-3.50;99.90
26051;DHT22;13825;53.496;10.020;2022-12-18T11:40:55;-3.50;99.90
26051;DHT22;13825;53.496;10.020;2022-12-18T11:43:31;-3.50;99.90
26051;DHT22;13825;53.496;10.020;2022-12-18T11:46:04;-3.50;99.90
26051;DHT22;13825;53.496;10.020;2022-12-18T11:48:41;-3.50;99.90
26051;DHT22;13825;53.496;10.020;2022-12-18T11:51:15;-3.30;99.90
26051;DHT22;13825;53.496;10.020;2022-12-18T11:53:45;-3.20;99.90
26051;DHT22;13825;53.496;10.020;2022-12-18T11:56:30;-3.10;99.90
26051;DHT22;13825;53.496;10.020;2022-12-18T11:59:08;-3.00;99.90
26051;DHT22;13825;53.496;10.020;2022-12-18T12:01:48;-3.00;99.90
26051;DHT22;13825;53.496;10.020;2022-12-18T12:07:31;-2.90;99.90
26051;DHT22;13825;53.496;10.020;2022-12-18T12:10:20;-2.90;99.90
26051;DHT22;13825;53.496;10.020;2022-12-18T12:13:07;-3.00;99.90
26051;DHT22;13825;53.496;10.020;2022-12-18T12:15:57;-3.00;99.90
26051;DHT22;13825;53.496;10.020;2022-12-18T12:18:40;-3.10;99.90
26051;DHT22;13825;53.496;10.020;2022-12-18T12:21:20;-3.10;99.90
26051;DHT22;13825;53.496;10.020;2022-12-18T12:24:04;-3.10;99.90
26051;DHT22;13825;53.496;10.020;2022-12-18T12:26:50;-3.10;99.90
26051;DHT22;13825;53.496;10.020;2022-12-18T12:29:32;-3.00;99.90
26051;DHT22;13825;53.496;10.020;2022-12-18T12:32:19;-3.00;99.90
26051;DHT22;13825;53.496;10.020;2022-12-18T12:35:12;-2.90;99.90
26051;DHT22;13825;53.496;10.020;2022-12-18T12:37:52;-3.00;99.90
26051;DHT22;13825;53.496;10.020;2022-12-18T12:40:27;-3.00;99.90
26051;DHT22;13825;53.496;10.020;2022-12-18T12:43:15;-2.90;99.90
26051;DHT22;13825;53.496;10.020;2022-12-18T12:45:49;-3.00;99.90
26051;DHT22;13825;53.496;10.020;2022-12-18T12:48:41;-2.90;99.90
26051;DHT22;13825;53.496;10.020;2022-12-18T12:51:15;-2.80;99.90
26051;DHT22;13825;53.496;10.020;2022-12-18T12:53:52;-2.70;99.90
26051;DHT22;13825;53.496;10.020;2022-12-18T12:56:35;-2.80;99.90
26051;DHT22;13825;53.496;10.020;2022-12-18T12:59:19;-2.70;99.90
26051;DHT22;13825;53.496;10.020;2022-12-18T13:02:18;-2.70;99.90
26051;DHT22;13825;53.496;10.020;2022-12-18T13:05:31;-2.80;99.90
26051;DHT22;13825;53.496;10.020;2022-12-18T13:12:08;-2.90;99.90
26051;DHT22;13825;53.496;10.020;2022-12-18T13:14:48;-2.90;99.90
26051;DHT22;13825;53.496;10.020;2022-12-18T13:17:39;-2.80;99.90
26051;DHT22;13825;53.496;10.020;2022-12-18T13:20:39;-2.80;99.90
26051;DHT22;13825;53.496;10.020;2022-12-18T13:23:34;-2.80;99.90
26051;DHT22;13825;53.496;10.020;2022-12-18T13:29:48;-2.90;99.90
26051;DHT22;13825;53.496;10.020;2022-12-18T13:32:47;-3.10;99.90
26051;DHT22;13825;53.496;10.020;2022-12-18T13:49:24;-3.20;99.90
26051;DHT22;13825;53.496;10.020;2022-12-18T13:52:17;-3.50;99.90
26051;DHT22;13825;53.496;10.020;2022-12-18T13:55:55;-3.50;99.90
26051;DHT22;13825;53.496;10.020;2022-12-18T13:57:53;-3.60;99.90
26051;DHT22;13825;53.496;10.020;2022-12-18T14:00:31;-3.50;99.90
26051;DHT22;13825;53.496;10.020;2022-12-18T14:03:26;-3.60;99.90
26051;DHT22;13825;53.496;10.020;2022-12-18T14:06:14;-3.70;99.90
26051;DHT22;13825;53.496;10.020;2022-12-18T14:08:46;-3.70;99.90
26051;DHT22;13825;53.496;10.020;2022-12-18T14:11:21;-3.80;99.90
26051;DHT22;13825;53.496;10.020;2022-12-18T14:13:49;-3.80;99.90
26051;DHT22;13825;53.496;10.020;2022-12-18T14:16:19;-3.80;99.90
26051;DHT22;13825;53.496;10.020;2022-12-18T14:18:56;-3.80;99.90
26051;DHT22;13825;53.496;10.020;2022-12-18T14:21:28;-3.90;99.90
26051;DHT22;13825;53.496;10.020;2022-12-18T14:24:13;-3.90;99.90
26051;DHT22;13825;53.496;10.020;2022-12-18T14:26:41;-3.90;99.90
26051;DHT22;13825;53.496;10.020;2022-12-18T14:29:23;-3.90;99.90
26051;DHT22;13825;53.496;10.020;2022-12-18T14:32:13;-4.00;99.90
26051;DHT22;13825;53.496;10.020;2022-12-18T14:34:44;-4.10;99.90
26051;DHT22;13825;53.496;10.020;2022-12-18T14:37:22;-4.10;99.90
26051;DHT22;13825;53.496;10.020;2022-12-18T14:40:31;-4.10;99.90
26051;DHT22;13825;53.496;10.020;2022-12-18T14:43:24;-4.20;99.90
26051;DHT22;13825;53.496;10.020;2022-12-18T14:45:57;-4.30;99.90
26051;DHT22;13825;53.496;10.020;2022-12-18T14:48:34;-4.40;99.90
26051;DHT22;13825;53.496;10.020;2022-12-18T14:51:06;-4.40;99.90
26051;DHT22;13825;53.496;10.020;2022-12-18T14:53:40;-4.30;99.90
26051;DHT22;13825;53.496;10.020;2022-12-18T14:56:17;-4.30;99.90
26051;DHT22;13825;53.496;10.020;2022-12-18T14:58:49;-4.40;99.90
26051;DHT22;13825;53.496;10.020;2022-12-18T15:01:24;-4.50;99.90
26051;DHT22;13825;53.496;10.020;2022-12-18T15:03:52;-4.50;99.90
26051;DHT22;13825;53.496;10.020;2022-12-18T15:06:28;-4.50;99.90
26051;DHT22;13825;53.496;10.020;2022-12-18T15:08:58;-4.50;99.90
26051;DHT22;13825;53.496;10.020;2022-12-18T15:14:39;-4.60;99.90
26051;DHT22;13825;53.496;10.020;2022-12-18T15:17:16;-4.60;99.90
26051;DHT22;13825;53.496;10.020;2022-12-18T15:19:44;-4.80;99.90
26051;DHT22;13825;53.496;10.020;2022-12-18T15:22:26;-4.70;99.90
26051;DHT22;13825;53.496;10.020;2022-12-18T15:25:15;-4.80;99.90
26051;DHT22;13825;53.496;10.020;2022-12-18T15:27:48;-4.90;99.90
26051;DHT22;13825;53.496;10.020;2022-12-18T15:30:22;-5.00;99.90
26051;DHT22;13825;53.496;10.020;2022-12-18T15:32:52;-4.90;99.90
26051;DHT22;13825;53.496;10.020;2022-12-18T15:35:32;-5.00;99.90
26051;DHT22;13825;53.496;10.020;2022-12-18T15:38:02;-4.90;99.90
26051;DHT22;13825;53.496;10.020;2022-12-18T15:40:32;-4.80;99.90
26051;DHT22;13825;53.496;10.020;2022-12-18T15:43:01;-4.90;99.90
26051;DHT22;13825;53.496;10.020;2022-12-18T15:45:48;-4.80;99.90
26051;DHT22;13825;53.496;10.020;2022-12-18T15:48:21;-4.70;99.90
26051;DHT22;13825;53.496;10.020;2022-12-18T15:50:59;-4.70;99.90
26051;DHT22;13825;53.496;10.020;2022-12-18T15:53:32;-4.60;99.90
26051;DHT22;13825;53.496;10.020;2022-12-18T15:56:01;-4.70;99.90
26051;DHT22;13825;53.496;10.020;2022-12-18T15:58:45;-4.60;99.90
26051;DHT22;13825;53.496;10.020;2022-12-18T16:01:15;-4.50;99.90
26051;DHT22;13825;53.496;10.020;2022-12-18T16:03:46;-4.40;99.90
26051;DHT22;13825;53.496;10.020;2022-12-18T16:06:13;-4.50;99.90
26051;DHT22;13825;53.496;10.020;2022-12-18T16:08:42;-4.40;99.90
26051;DHT22;13825;53.496;10.020;2022-12-18T16:11:21;-4.40;99.90
26051;DHT22;13825;53.496;10.020;2022-12-18T16:14:17;-4.40;99.90
26051;DHT22;13825;53.496;10.020;2022-12-18T16:16:45;-4.30;99.90
26051;DHT22;13825;53.496;10.020;2022-12-18T16:19:15;-4.40;99.90